Terminal Aerodrome Forecast
Issued by NWS

Home | Current Version | Previous Version | Text Only | Print | Product List | Glossary On
Versions: 1 2 3 4 5 6 7 8 9 10 11 12
055
FTUS44 KBMX 272340
TAFTOI
TAF
KTOI 272340Z 2800/2824 VRB07KT P6SM VCTS BKN035CB
      TEMPO 2800/2801 1SM RA BR BKN025
     FM280200 VRB03KT P6SM BKN050
     FM280600 18003KT 4SM BR SCT002 OVC007
     FM281500 17009KT P6SM BKN015
     FM281800 17009G18KT P6SM SCT050=

USA.gov is the U.S. government's official web portal to all federal, state and local government web resources and services.